Time;durP1;ratioP1;P1;durP2;ratioP2;P2;SDS_P1;SDS_P2;PMS_P1;PMS_P2;Temp;Humidity;BMP_temperature;BMP_pressure;BME280_temperature;BME280_humidity;BME280_pressure;Samples;Min_cycle;Max_cycle;Signal;HPM_P1;HPM_P2
2021/11/30 10:38:31;;;;;;;;;;;20.90;35.10;;;;;;477581;249;1300;-46
2021/11/30 10:40:32;;;;;;;;;;;20.90;35.20;;;;;;477962;249;2203;-46
2021/11/30 10:42:34;;;;;;;;;;;20.90;35.10;;;;;;477821;249;1181;-46
2021/11/30 10:44:35;;;;;;;;;;;20.90;35.10;;;;;;477712;249;1116;-46
2021/11/30 10:46:36;;;;;;;;;;;20.90;35.10;;;;;;477778;248;1324;-47
2021/11/30 10:48:38;;;;;;;;;;;20.90;35.00;;;;;;477690;249;1116;-46
2021/11/30 10:50:39;;;;;;;;;;;20.90;35.00;;;;;;477678;249;1340;-46
2021/11/30 10:52:41;;;;;;;;;;;20.90;35.00;;;;;;477544;249;1315;-46
2021/11/30 10:54:42;;;;;;;;;;;20.90;35.00;;;;;;477747;249;1073;-46
2021/11/30 10:56:43;;;;;;;;;;;20.90;35.10;;;;;;477550;249;1155;-46
2021/11/30 10:58:45;;;;;;;;;;;20.90;35.20;;;;;;477666;249;1220;-46
2021/11/30 11:00:46;;;;;;;;;;;20.90;35.20;;;;;;477606;249;2183;-46
2021/11/30 11:02:50;;;;;;;;;;;20.90;35.10;;;;;;477912;249;1197;-46
2021/11/30 11:04:50;;;;;;;;;;;20.90;35.10;;;;;;477661;249;1821;-46
2021/11/30 11:06:51;;;;;;;;;;;20.90;35.00;;;;;;477509;249;1336;-46
2021/11/30 11:08:55;;;;;;;;;;;20.90;35.00;;;;;;477588;249;1293;-46
2021/11/30 11:10:54;;;;;;;;;;;20.80;35.00;;;;;;477314;248;2031;-46
2021/11/30 11:12:55;;;;;;;;;;;20.90;35.00;;;;;;477694;248;1132;-46
2021/11/30 11:14:59;;;;;;;;;;;20.80;35.00;;;;;;477512;249;1168;-47
2021/11/30 11:16:58;;;;;;;;;;;20.80;35.00;;;;;;477461;248;2042;-46
2021/11/30 11:18:59;;;;;;;;;;;20.90;35.00;;;;;;477788;249;1266;-46
2021/11/30 11:21:01;;;;;;;;;;;20.80;35.00;;;;;;477467;249;3975;-46
2021/11/30 11:23:02;;;;;;;;;;;20.80;35.10;;;;;;477616;249;1445;-46
2021/11/30 11:25:03;;;;;;;;;;;20.80;35.00;;;;;;477588;249;1154;-46
2021/11/30 11:27:05;;;;;;;;;;;20.80;35.00;;;;;;477637;249;1082;-46
2021/11/30 11:29:06;;;;;;;;;;;20.90;35.00;;;;;;477644;249;1075;-46
2021/11/30 11:31:07;;;;;;;;;;;20.90;35.00;;;;;;477594;249;1310;-46
2021/11/30 11:33:09;;;;;;;;;;;20.90;35.00;;;;;;477583;249;1332;-46
2021/11/30 11:35:12;;;;;;;;;;;20.80;35.00;;;;;;477595;249;1213;-46
2021/11/30 11:37:12;;;;;;;;;;;20.80;35.10;;;;;;477685;249;2206;-47
2021/11/30 11:39:14;;;;;;;;;;;20.80;35.00;;;;;;477721;249;1217;-46
2021/11/30 11:41:15;;;;;;;;;;;20.80;35.00;;;;;;477478;248;2191;-46
2021/11/30 11:43:16;;;;;;;;;;;20.80;35.00;;;;;;477515;248;1139;-46
2021/11/30 11:45:17;;;;;;;;;;;20.80;35.00;;;;;;477654;249;1154;-46
2021/11/30 11:47:19;;;;;;;;;;;20.80;35.10;;;;;;477499;249;1283;-46
2021/11/30 11:49:20;;;;;;;;;;;20.80;35.00;;;;;;477825;249;1072;-46
2021/11/30 11:51:22;;;;;;;;;;;20.80;35.00;;;;;;477572;249;1328;-46
2021/11/30 11:53:23;;;;;;;;;;;20.80;35.00;;;;;;477613;249;1245;-46
2021/11/30 11:55:27;;;;;;;;;;;20.80;35.00;;;;;;477593;249;1099;-46
2021/11/30 11:57:26;;;;;;;;;;;20.80;34.90;;;;;;477386;248;1802;-47
2021/11/30 11:59:27;;;;;;;;;;;20.80;34.90;;;;;;477478;249;1081;-46
2021/11/30 12:01:28;;;;;;;;;;;20.80;35.00;;;;;;477261;249;2190;-46
2021/11/30 12:03:30;;;;;;;;;;;20.80;35.00;;;;;;477396;249;1109;-46
2021/11/30 12:05:31;;;;;;;;;;;20.80;34.90;;;;;;477572;249;1164;-46
2021/11/30 12:07:32;;;;;;;;;;;20.80;35.00;;;;;;477572;249;1277;-46
2021/11/30 12:09:34;;;;;;;;;;;20.80;35.00;;;;;;477387;249;1236;-46
2021/11/30 12:11:36;;;;;;;;;;;20.70;35.00;;;;;;477443;249;1068;-46
2021/11/30 12:13:37;;;;;;;;;;;20.80;34.90;;;;;;477623;249;1099;-46
2021/11/30 12:15:38;;;;;;;;;;;20.80;34.90;;;;;;477542;249;1249;-46
2021/11/30 12:17:40;;;;;;;;;;;20.80;34.90;;;;;;477476;249;1242;-46
2021/11/30 12:19:41;;;;;;;;;;;20.80;35.00;;;;;;477370;249;1066;-46
2021/11/30 12:21:42;;;;;;;;;;;20.70;34.90;;;;;;477543;249;1204;-46
2021/11/30 12:23:44;;;;;;;;;;;20.80;35.00;;;;;;477575;249;1433;-46
2021/11/30 12:25:45;;;;;;;;;;;20.80;34.90;;;;;;477456;249;1185;-46
2021/11/30 12:27:46;;;;;;;;;;;20.80;34.90;;;;;;477432;249;2502;-46
2021/11/30 12:29:49;;;;;;;;;;;20.80;34.80;;;;;;477524;249;1088;-46
2021/11/30 12:31:51;;;;;;;;;;;20.80;34.80;;;;;;477473;249;2083;-46
2021/11/30 12:33:50;;;;;;;;;;;20.80;34.80;;;;;;478295;248;2154;-46
2021/11/30 12:35:54;;;;;;;;;;;20.80;34.90;;;;;;477742;248;1252;-46
2021/11/30 12:37:55;;;;;;;;;;;20.80;34.90;;;;;;477678;249;1244;-46
2021/11/30 12:39:57;;;;;;;;;;;20.70;34.90;;;;;;477557;249;2155;-46
2021/11/30 12:41:59;;;;;;;;;;;20.80;34.90;;;;;;477510;249;1323;-46
2021/11/30 12:43:59;;;;;;;;;;;20.80;34.90;;;;;;477260;249;2315;-46
2021/11/30 12:46:02;;;;;;;;;;;20.70;34.90;;;;;;477370;249;1486;-47
2021/11/30 12:48:02;;;;;;;;;;;20.80;34.90;;;;;;478073;249;2318;-46
2021/11/30 12:50:03;;;;;;;;;;;20.70;34.90;;;;;;477685;248;1137;-46
2021/11/30 12:52:05;;;;;;;;;;;20.80;34.90;;;;;;477574;249;1061;-46
2021/11/30 12:54:06;;;;;;;;;;;20.70;34.90;;;;;;477567;249;1351;-46
2021/11/30 12:56:07;;;;;;;;;;;20.70;34.80;;;;;;477463;249;1347;-46
2021/11/30 12:58:09;;;;;;;;;;;20.70;34.90;;;;;;477628;249;1212;-46
2021/11/30 13:00:11;;;;;;;;;;;20.70;34.90;;;;;;477609;249;2187;-46
2021/11/30 13:02:11;;;;;;;;;;;20.80;34.90;;;;;;477671;249;2201;-47
2021/11/30 13:04:13;;;;;;;;;;;20.80;34.90;;;;;;477692;249;1099;-46
2021/11/30 13:06:14;;;;;;;;;;;20.70;34.90;;;;;;477591;249;1342;-46
2021/11/30 13:08:16;;;;;;;;;;;20.70;34.80;;;;;;477576;249;1108;-46
2021/11/30 13:10:17;;;;;;;;;;;20.70;34.80;;;;;;477517;249;1161;-46
2021/11/30 13:12:18;;;;;;;;;;;20.70;34.80;;;;;;477383;249;1284;-46
2021/11/30 13:14:20;;;;;;;;;;;20.70;35.00;;;;;;477446;249;1110;-46
2021/11/30 13:16:21;;;;;;;;;;;20.70;35.00;;;;;;477281;249;1213;-46
2021/11/30 13:18:22;;;;;;;;;;;20.70;35.00;;;;;;477515;249;1147;-46
2021/11/30 13:20:26;;;;;;;;;;;20.70;34.90;;;;;;477545;249;2203;-46
2021/11/30 13:22:28;;;;;;;;;;;20.70;34.90;;;;;;477639;248;1200;-46
2021/11/30 13:24:29;;;;;;;;;;;20.70;34.80;;;;;;477449;249;1931;-47
2021/11/30 13:26:31;;;;;;;;;;;20.70;34.90;;;;;;477439;249;1368;-46
2021/11/30 13:28:33;;;;;;;;;;;20.70;34.80;;;;;;477550;248;1252;-46
2021/11/30 13:30:34;;;;;;;;;;;20.80;34.90;;;;;;477639;249;1155;-46
2021/11/30 13:32:35;;;;;;;;;;;20.70;34.80;;;;;;477571;249;1348;-46
2021/11/30 13:34:36;;;;;;;;;;;20.80;34.90;;;;;;477576;249;1092;-46
2021/11/30 13:36:38;;;;;;;;;;;20.70;34.80;;;;;;477605;249;1374;-46
2021/11/30 13:38:39;;;;;;;;;;;20.70;34.80;;;;;;477621;249;1094;-46
2021/11/30 13:40:40;;;;;;;;;;;20.70;34.80;;;;;;477547;249;2203;-46
2021/11/30 13:42:42;;;;;;;;;;;20.70;34.90;;;;;;477574;249;1240;-46
2021/11/30 13:44:43;;;;;;;;;;;20.70;34.80;;;;;;477433;249;1034;-47
2021/11/30 13:46:45;;;;;;;;;;;20.70;34.80;;;;;;477554;248;1321;-46
2021/11/30 13:48:46;;;;;;;;;;;20.70;34.80;;;;;;477592;248;2185;-46
2021/11/30 13:50:47;;;;;;;;;;;20.70;34.90;;;;;;477427;249;1175;-46
2021/11/30 13:52:48;;;;;;;;;;;20.70;34.80;;;;;;477372;249;1108;-46
2021/11/30 13:54:52;;;;;;;;;;;20.70;34.80;;;;;;477502;249;1220;-46
2021/11/30 13:56:57;;;;;;;;;;;20.70;34.80;;;;;;477500;248;2419;-46
2021/11/30 13:58:58;;;;;;;;;;;20.70;34.80;;;;;;477286;248;2339;-46
2021/11/30 14:00:59;;;;;;;;;;;20.70;34.90;;;;;;477290;249;2194;-46
2021/11/30 14:02:59;;;;;;;;;;;20.70;34.90;;;;;;477685;248;2213;-47
2021/11/30 14:05:01;;;;;;;;;;;20.60;34.80;;;;;;477726;249;1082;-46
2021/11/30 14:07:03;;;;;;;;;;;20.70;34.80;;;;;;477580;249;1178;-46
2021/11/30 14:09:04;;;;;;;;;;;20.70;34.80;;;;;;478069;248;2286;-47
2021/11/30 14:11:05;;;;;;;;;;;20.70;34.80;;;;;;476724;249;1187;-46
2021/11/30 14:13:07;;;;;;;;;;;20.70;34.80;;;;;;477622;249;1167;-46
2021/11/30 14:15:08;;;;;;;;;;;20.70;34.80;;;;;;477533;249;1099;-46
2021/11/30 14:17:09;;;;;;;;;;;20.70;34.70;;;;;;477434;249;1095;-46
2021/11/30 14:19:11;;;;;;;;;;;20.70;34.80;;;;;;477314;249;1224;-46
2021/11/30 14:21:12;;;;;;;;;;;20.70;34.70;;;;;;477156;249;2190;-46
2021/11/30 14:23:13;;;;;;;;;;;20.70;34.60;;;;;;477407;249;1242;-46
2021/11/30 14:25:15;;;;;;;;;;;20.80;34.70;;;;;;477484;249;1179;-46
2021/11/30 14:27:16;;;;;;;;;;;20.70;34.70;;;;;;477710;248;1261;-47
2021/11/30 14:29:17;;;;;;;;;;;20.70;34.70;;;;;;477841;249;1286;-46
2021/11/30 14:31:19;;;;;;;;;;;20.70;34.80;;;;;;477520;248;1180;-46
2021/11/30 14:33:20;;;;;;;;;;;20.70;34.80;;;;;;477648;249;1235;-46
2021/11/30 14:35:22;;;;;;;;;;;20.70;34.80;;;;;;477662;249;1146;-46
2021/11/30 14:37:23;;;;;;;;;;;20.70;34.70;;;;;;477712;248;1329;-46
2021/11/30 14:39:25;;;;;;;;;;;20.70;34.80;;;;;;477700;248;1077;-46
2021/11/30 14:41:26;;;;;;;;;;;20.70;34.80;;;;;;477545;249;2151;-46
2021/11/30 14:43:28;;;;;;;;;;;20.70;34.70;;;;;;477495;249;1085;-46
2021/11/30 14:45:29;;;;;;;;;;;20.70;34.60;;;;;;477489;249;2133;-46
2021/11/30 14:47:30;;;;;;;;;;;20.70;34.60;;;;;;477468;249;1259;-46
2021/11/30 14:49:33;;;;;;;;;;;20.70;34.70;;;;;;476879;249;1082;-46
2021/11/30 14:51:32;;;;;;;;;;;20.80;34.80;;;;;;477554;248;2355;-46
2021/11/30 14:53:34;;;;;;;;;;;20.70;34.70;;;;;;477567;249;1231;-46
2021/11/30 14:55:35;;;;;;;;;;;20.70;34.70;;;;;;477586;249;1153;-46
2021/11/30 14:57:36;;;;;;;;;;;20.70;34.80;;;;;;477575;249;1153;-46
2021/11/30 14:59:38;;;;;;;;;;;20.70;34.80;;;;;;477616;249;1245;-46
2021/11/30 15:01:41;;;;;;;;;;;20.70;34.70;;;;;;477730;249;2193;-46
2021/11/30 15:03:41;;;;;;;;;;;20.60;34.70;;;;;;477818;249;2083;-46
2021/11/30 15:05:42;;;;;;;;;;;20.70;34.80;;;;;;477625;249;1083;-46
2021/11/30 15:07:44;;;;;;;;;;;20.70;34.70;;;;;;477518;249;1218;-46
2021/11/30 15:09:45;;;;;;;;;;;20.70;34.80;;;;;;477287;249;1106;-46
2021/11/30 15:11:47;;;;;;;;;;;20.70;34.80;;;;;;477373;248;1374;-45
2021/11/30 15:13:48;;;;;;;;;;;20.70;34.80;;;;;;477494;249;1112;-46
2021/11/30 15:15:52;;;;;;;;;;;20.60;34.70;;;;;;477379;249;1485;-46
2021/11/30 15:17:51;;;;;;;;;;;20.70;34.80;;;;;;477208;249;2444;-46
2021/11/30 15:19:53;;;;;;;;;;;20.60;34.70;;;;;;477378;249;1205;-46
2021/11/30 15:21:53;;;;;;;;;;;20.60;34.70;;;;;;477458;249;2279;-46
2021/11/30 15:23:55;;;;;;;;;;;20.70;34.70;;;;;;477435;249;618;-46
2021/11/30 15:25:56;;;;;;;;;;;20.70;34.70;;;;;;477873;249;1465;-46
2021/11/30 15:27:57;;;;;;;;;;;20.60;34.70;;;;;;477906;249;1079;-46
2021/11/30 15:29:59;;;;;;;;;;;20.70;34.60;;;;;;477749;249;1137;-47
2021/11/30 15:32:00;;;;;;;;;;;20.70;34.60;;;;;;477709;249;1212;-46
2021/11/30 15:34:02;;;;;;;;;;;20.70;34.70;;;;;;477526;248;1112;-46
2021/11/30 15:36:03;;;;;;;;;;;20.70;34.60;;;;;;477548;249;1171;-46
2021/11/30 15:38:05;;;;;;;;;;;20.70;34.70;;;;;;477774;249;1195;-46
2021/11/30 15:40:06;;;;;;;;;;;20.70;34.60;;;;;;477918;249;1062;-46
2021/11/30 15:42:07;;;;;;;;;;;20.70;34.60;;;;;;477454;249;2142;-46
2021/11/30 15:44:08;;;;;;;;;;;20.70;34.60;;;;;;477596;249;1047;-46
2021/11/30 15:46:10;;;;;;;;;;;20.70;34.60;;;;;;477700;249;1350;-46
2021/11/30 15:48:11;;;;;;;;;;;20.70;34.60;;;;;;477667;249;1091;-46
2021/11/30 15:50:12;;;;;;;;;;;20.70;34.50;;;;;;477780;248;1469;-46
2021/11/30 15:52:14;;;;;;;;;;;20.70;34.50;;;;;;477718;249;1140;-47
2021/11/30 15:54:16;;;;;;;;;;;20.70;34.60;;;;;;477844;248;1071;-46
2021/11/30 15:58:36;;;;;;;;;;;20.70;34.60;;;;;;477887;248;1204;-46
2021/11/30 16:00:38;;;;;;;;;;;20.70;34.60;;;;;;477688;248;1107;-46
2021/11/30 16:02:39;;;;;;;;;;;20.70;34.60;;;;;;477630;249;2484;-46
2021/11/30 16:04:41;;;;;;;;;;;20.70;34.60;;;;;;477549;248;1081;-46
2021/11/30 16:06:42;;;;;;;;;;;20.70;34.70;;;;;;477409;248;1825;-46
2021/11/30 16:08:43;;;;;;;;;;;20.70;34.60;;;;;;477706;249;1111;-46
2021/11/30 16:10:45;;;;;;;;;;;20.70;34.60;;;;;;477890;248;1124;-46
2021/11/30 16:12:46;;;;;;;;;;;20.70;34.60;;;;;;477763;248;1425;-46
2021/11/30 16:14:47;;;;;;;;;;;20.70;34.70;;;;;;477779;249;1074;-46
2021/11/30 16:16:49;;;;;;;;;;;20.60;34.60;;;;;;477790;249;1268;-46
2021/11/30 16:18:50;;;;;;;;;;;20.70;34.60;;;;;;477778;249;1053;-46
2021/11/30 16:20:51;;;;;;;;;;;20.70;34.70;;;;;;477892;249;1455;-46
2021/11/30 16:22:55;;;;;;;;;;;20.70;34.70;;;;;;477767;249;2194;-46
2021/11/30 16:24:54;;;;;;;;;;;20.70;34.80;;;;;;477796;248;2043;-46
2021/11/30 16:26:56;;;;;;;;;;;20.60;34.80;;;;;;477932;248;1181;-46
2021/11/30 16:28:57;;;;;;;;;;;20.60;34.80;;;;;;477823;248;1112;-46
2021/11/30 16:30:58;;;;;;;;;;;20.60;34.90;;;;;;477802;249;1084;-46
2021/11/30 16:33:00;;;;;;;;;;;20.60;34.80;;;;;;477770;249;1193;-46
2021/11/30 16:35:01;;;;;;;;;;;20.60;34.80;;;;;;477853;249;1123;-46
2021/11/30 16:37:04;;;;;;;;;;;20.70;34.80;;;;;;477812;249;1126;-46
2021/11/30 16:39:04;;;;;;;;;;;20.70;34.80;;;;;;477680;249;1988;-46
2021/11/30 16:41:05;;;;;;;;;;;20.70;34.80;;;;;;477783;249;1383;-46
2021/11/30 16:43:07;;;;;;;;;;;20.60;34.70;;;;;;477833;249;2215;-46
2021/11/30 16:45:08;;;;;;;;;;;20.60;34.80;;;;;;478095;249;1541;-46
2021/11/30 16:47:09;;;;;;;;;;;20.60;34.80;;;;;;477989;248;1333;-46
2021/11/30 16:49:11;;;;;;;;;;;20.60;34.80;;;;;;478035;249;1108;-46
2021/11/30 16:51:12;;;;;;;;;;;20.60;34.90;;;;;;478169;249;1387;-46
2021/11/30 16:53:13;;;;;;;;;;;20.60;34.90;;;;;;477962;249;1077;-46
2021/11/30 16:55:15;;;;;;;;;;;20.60;34.90;;;;;;477931;249;1078;-46
2021/11/30 16:57:16;;;;;;;;;;;20.60;34.90;;;;;;477856;248;1175;-46
2021/11/30 16:59:18;;;;;;;;;;;20.60;34.80;;;;;;477897;249;1048;-46
2021/11/30 17:01:19;;;;;;;;;;;20.60;34.90;;;;;;477940;249;1151;-46
2021/11/30 17:03:20;;;;;;;;;;;20.60;34.80;;;;;;477910;249;2187;-46
2021/11/30 17:05:22;;;;;;;;;;;20.60;34.80;;;;;;477977;249;1348;-46
2021/11/30 17:07:23;;;;;;;;;;;20.60;34.80;;;;;;477758;249;1064;-46
2021/11/30 17:09:26;;;;;;;;;;;20.60;34.90;;;;;;478069;249;1210;-46
2021/11/30 17:11:28;;;;;;;;;;;20.60;34.90;;;;;;478115;249;1104;-46
2021/11/30 17:13:29;;;;;;;;;;;20.60;34.90;;;;;;478011;249;1236;-46
2021/11/30 17:15:31;;;;;;;;;;;20.60;34.90;;;;;;477898;249;1333;-46
2021/11/30 17:17:32;;;;;;;;;;;20.60;34.90;;;;;;477972;248;1556;-46
2021/11/30 17:19:33;;;;;;;;;;;20.60;35.00;;;;;;478110;248;1066;-46
2021/11/30 17:21:40;;;;;;;;;;;20.60;34.90;;;;;;477966;249;2199;-46
2021/11/30 17:23:39;;;;;;;;;;;20.60;34.90;;;;;;477642;248;1945;-46
2021/11/30 17:25:38;;;;;;;;;;;20.60;34.90;;;;;;478002;248;2094;-46
2021/11/30 17:27:42;;;;;;;;;;;20.60;35.00;;;;;;477960;249;1350;-46
2021/11/30 17:29:40;;;;;;;;;;;20.60;35.00;;;;;;477836;249;2124;-46
2021/11/30 17:31:42;;;;;;;;;;;20.60;35.00;;;;;;478089;249;1229;-46
2021/11/30 17:33:43;;;;;;;;;;;20.60;35.10;;;;;;478139;249;1238;-46
2021/11/30 17:35:44;;;;;;;;;;;20.50;35.00;;;;;;478059;249;1162;-46
2021/11/30 17:37:46;;;;;;;;;;;20.60;35.00;;;;;;478146;248;1043;-46
2021/11/30 17:39:47;;;;;;;;;;;20.60;35.00;;;;;;478082;249;1074;-46
2021/11/30 17:41:48;;;;;;;;;;;20.60;34.90;;;;;;478015;248;2198;-47
2021/11/30 17:43:50;;;;;;;;;;;20.60;35.00;;;;;;478090;248;1183;-46
2021/11/30 17:45:51;;;;;;;;;;;20.60;34.90;;;;;;478185;249;1243;-46
2021/11/30 17:47:52;;;;;;;;;;;20.60;35.00;;;;;;478343;249;1233;-46
2021/11/30 17:49:54;;;;;;;;;;;20.60;35.00;;;;;;478109;249;1012;-46
2021/11/30 17:51:56;;;;;;;;;;;20.60;35.00;;;;;;478069;249;1158;-46
2021/11/30 17:53:56;;;;;;;;;;;20.50;35.10;;;;;;478002;249;1804;-45
2021/11/30 17:55:58;;;;;;;;;;;20.60;35.00;;;;;;478168;249;1462;-46
2021/11/30 17:57:59;;;;;;;;;;;20.60;34.90;;;;;;478068;249;1314;-46
2021/11/30 18:00:00;;;;;;;;;;;20.60;34.90;;;;;;478339;248;989;-46
2021/11/30 18:02:02;;;;;;;;;;;20.60;34.90;;;;;;478202;249;2198;-46
2021/11/30 18:04:03;;;;;;;;;;;20.50;35.00;;;;;;478188;248;1066;-46
2021/11/30 18:06:04;;;;;;;;;;;20.60;35.00;;;;;;478275;248;1309;-46
2021/11/30 18:08:06;;;;;;;;;;;20.60;35.10;;;;;;478119;249;1228;-46
2021/11/30 18:10:07;;;;;;;;;;;20.60;35.00;;;;;;478177;249;1293;-46
2021/11/30 18:12:10;;;;;;;;;;;20.60;35.10;;;;;;478044;249;1348;-46
2021/11/30 18:14:10;;;;;;;;;;;20.60;35.00;;;;;;478074;249;1844;-47
2021/11/30 18:16:11;;;;;;;;;;;20.60;35.00;;;;;;478306;248;1318;-46
2021/11/30 18:18:12;;;;;;;;;;;20.60;35.00;;;;;;478170;249;1376;-47
2021/11/30 18:20:14;;;;;;;;;;;20.60;35.00;;;;;;478194;249;1077;-46
2021/11/30 18:22:15;;;;;;;;;;;20.50;35.00;;;;;;478162;249;2140;-46
2021/11/30 18:24:16;;;;;;;;;;;20.60;35.00;;;;;;478229;249;1068;-46
2021/11/30 18:26:18;;;;;;;;;;;20.60;35.10;;;;;;478147;249;1397;-46
2021/11/30 18:28:19;;;;;;;;;;;20.60;35.10;;;;;;478105;249;1207;-46
2021/11/30 18:30:20;;;;;;;;;;;20.50;35.10;;;;;;478616;248;1353;-46
2021/11/30 18:32:22;;;;;;;;;;;20.60;35.00;;;;;;478211;249;1382;-46
2021/11/30 18:34:24;;;;;;;;;;;20.60;35.00;;;;;;478433;248;1084;-46
2021/11/30 18:36:25;;;;;;;;;;;20.50;35.00;;;;;;478260;248;1344;-46
2021/11/30 18:38:27;;;;;;;;;;;20.60;35.00;;;;;;478696;249;1058;-46
2021/11/30 18:40:28;;;;;;;;;;;20.50;35.00;;;;;;478667;248;1059;-47
2021/11/30 18:42:29;;;;;;;;;;;20.50;35.00;;;;;;478091;249;2186;-46
2021/11/30 18:44:31;;;;;;;;;;;20.50;35.10;;;;;;478605;249;1070;-46
2021/11/30 18:46:32;;;;;;;;;;;20.60;35.10;;;;;;478124;249;2018;-46
2021/11/30 18:48:33;;;;;;;;;;;20.50;35.10;;;;;;478470;248;1181;-46
2021/11/30 18:50:34;;;;;;;;;;;20.60;35.10;;;;;;478227;249;1075;-46
2021/11/30 18:52:36;;;;;;;;;;;20.50;35.10;;;;;;478104;249;1160;-46
2021/11/30 18:54:37;;;;;;;;;;;20.50;35.10;;;;;;478277;248;1029;-46
2021/11/30 18:56:38;;;;;;;;;;;20.60;35.10;;;;;;478104;248;1332;-46
2021/11/30 18:58:40;;;;;;;;;;;20.50;35.10;;;;;;478372;249;1188;-46
2021/11/30 19:00:42;;;;;;;;;;;20.50;35.10;;;;;;478148;249;1052;-46
2021/11/30 19:02:43;;;;;;;;;;;20.60;35.10;;;;;;478093;249;2210;-46
2021/11/30 19:04:44;;;;;;;;;;;20.50;35.10;;;;;;478217;249;1062;-46
2021/11/30 19:06:46;;;;;;;;;;;20.50;35.10;;;;;;478206;249;1684;-46
2021/11/30 19:08:47;;;;;;;;;;;20.50;35.10;;;;;;478486;249;991;-46
2021/11/30 19:10:48;;;;;;;;;;;20.50;35.00;;;;;;478253;249;1118;-46
2021/11/30 19:12:50;;;;;;;;;;;20.60;35.10;;;;;;478105;249;1139;-46
2021/11/30 19:14:51;;;;;;;;;;;20.50;35.10;;;;;;478384;249;1096;-46
2021/11/30 19:16:52;;;;;;;;;;;20.50;35.10;;;;;;478342;249;1672;-46
2021/11/30 19:18:54;;;;;;;;;;;20.60;35.10;;;;;;478363;249;1038;-46
2021/11/30 19:20:55;;;;;;;;;;;20.60;35.20;;;;;;478575;249;1139;-46
2021/11/30 19:22:57;;;;;;;;;;;20.50;35.20;;;;;;478230;249;2179;-46
2021/11/30 19:24:58;;;;;;;;;;;20.50;35.10;;;;;;478209;249;1995;-46
2021/11/30 19:27:01;;;;;;;;;;;20.50;35.10;;;;;;478121;249;1705;-46
2021/11/30 19:29:02;;;;;;;;;;;20.50;35.10;;;;;;478177;249;1071;-46
2021/11/30 19:31:03;;;;;;;;;;;20.50;35.10;;;;;;478407;249;1005;-46
2021/11/30 19:33:04;;;;;;;;;;;20.60;35.10;;;;;;478199;249;1270;-46
2021/11/30 19:35:06;;;;;;;;;;;20.50;35.20;;;;;;478412;249;988;-46
2021/11/30 19:37:10;;;;;;;;;;;20.50;35.10;;;;;;478200;249;1212;-46
2021/11/30 19:39:09;;;;;;;;;;;20.50;35.20;;;;;;478133;248;2068;-46
2021/11/30 19:41:10;;;;;;;;;;;20.50;35.20;;;;;;478402;249;1270;-46
2021/11/30 19:43:15;;;;;;;;;;;20.50;35.20;;;;;;478220;249;2211;-46
2021/11/30 19:45:16;;;;;;;;;;;20.60;35.20;;;;;;478227;248;1959;-46
2021/11/30 19:47:17;;;;;;;;;;;20.50;35.10;;;;;;478326;248;2112;-46
2021/11/30 19:49:22;;;;;;;;;;;20.50;35.10;;;;;;478506;248;1301;-46
2021/11/30 19:51:20;;;;;;;;;;;20.50;35.20;;;;;;478207;248;1545;-47
2021/11/30 19:53:21;;;;;;;;;;;20.50;35.10;;;;;;478247;249;1252;-46
2021/11/30 19:55:22;;;;;;;;;;;20.60;35.20;;;;;;478301;249;1108;-46
2021/11/30 19:57:25;;;;;;;;;;;20.50;35.20;;;;;;478516;248;1316;-46
2021/11/30 19:59:26;;;;;;;;;;;20.50;35.20;;;;;;478247;249;2176;-46
2021/11/30 20:06:04;;;;;;;;;;;20.50;35.20;;;;;;478725;248;1227;-46
2021/11/30 20:08:06;;;;;;;;;;;20.50;35.20;;;;;;478265;249;1197;-46
2021/11/30 20:10:07;;;;;;;;;;;20.50;35.20;;;;;;478600;248;2336;-46
2021/11/30 20:12:10;;;;;;;;;;;20.50;35.30;;;;;;478272;248;1148;-46
2021/11/30 20:14:10;;;;;;;;;;;20.50;35.20;;;;;;478451;248;2339;-46
2021/11/30 20:16:11;;;;;;;;;;;20.50;35.20;;;;;;478538;249;1316;-46
2021/11/30 20:18:13;;;;;;;;;;;20.50;35.20;;;;;;478594;249;1263;-46
2021/11/30 20:20:14;;;;;;;;;;;20.50;35.30;;;;;;478309;249;1074;-46
2021/11/30 20:22:15;;;;;;;;;;;20.50;35.30;;;;;;478416;249;1347;-45
2021/11/30 20:24:17;;;;;;;;;;;20.50;35.30;;;;;;478344;248;2136;-46
2021/11/30 20:26:18;;;;;;;;;;;20.50;35.30;;;;;;478308;248;1275;-46
2021/11/30 20:28:19;;;;;;;;;;;20.50;35.20;;;;;;478703;249;1244;-46
2021/11/30 20:30:21;;;;;;;;;;;20.50;35.20;;;;;;478221;249;1180;-46
2021/11/30 20:32:22;;;;;;;;;;;20.50;35.20;;;;;;478437;249;1490;-46
2021/11/30 20:34:23;;;;;;;;;;;20.50;35.20;;;;;;478674;249;984;-46
2021/11/30 20:39:00;;;;;;;;;;;20.50;35.30;;;;;;478754;248;1285;-46
2021/11/30 20:41:01;;;;;;;;;;;20.50;35.20;;;;;;478363;249;2356;-46
2021/11/30 20:43:02;;;;;;;;;;;20.50;35.20;;;;;;478617;248;2326;-46
2021/11/30 20:45:04;;;;;;;;;;;20.50;35.20;;;;;;478420;248;1233;-46
2021/11/30 20:47:05;;;;;;;;;;;20.50;35.20;;;;;;478186;249;2453;-46
2021/11/30 20:49:08;;;;;;;;;;;20.50;35.30;;;;;;478442;248;1086;-46
2021/11/30 20:51:08;;;;;;;;;;;20.40;35.30;;;;;;478514;248;1807;-46
2021/11/30 20:53:10;;;;;;;;;;;20.40;35.30;;;;;;478294;249;1242;-46
2021/11/30 20:55:11;;;;;;;;;;;20.40;35.30;;;;;;478455;249;1071;-46
2021/11/30 20:57:13;;;;;;;;;;;20.50;35.30;;;;;;478345;249;1225;-46
2021/11/30 20:59:14;;;;;;;;;;;20.40;35.30;;;;;;478445;249;1288;-46
2021/11/30 21:01:15;;;;;;;;;;;20.40;35.30;;;;;;478718;249;1095;-46
2021/11/30 21:03:17;;;;;;;;;;;20.50;35.30;;;;;;478599;249;2194;-46
2021/11/30 21:05:18;;;;;;;;;;;20.50;35.20;;;;;;478309;249;1086;-46
2021/11/30 21:07:21;;;;;;;;;;;20.50;35.20;;;;;;478292;249;1429;-46
2021/11/30 21:09:21;;;;;;;;;;;20.50;35.20;;;;;;478410;248;2528;-46
2021/11/30 21:11:23;;;;;;;;;;;20.50;35.20;;;;;;478279;249;1356;-46
2021/11/30 21:13:24;;;;;;;;;;;20.50;35.30;;;;;;478570;249;2243;-47
2021/11/30 21:15:25;;;;;;;;;;;20.50;35.30;;;;;;478291;249;1205;-46
2021/11/30 21:17:26;;;;;;;;;;;20.50;35.20;;;;;;478265;249;1185;-46
2021/11/30 21:19:28;;;;;;;;;;;20.50;35.20;;;;;;478710;249;1239;-46
2021/11/30 21:21:30;;;;;;;;;;;20.50;35.20;;;;;;478317;249;1390;-46
2021/11/30 21:23:30;;;;;;;;;;;20.50;35.30;;;;;;478328;248;2383;-47
2021/11/30 21:25:32;;;;;;;;;;;20.50;35.30;;;;;;478440;249;1061;-45
2021/11/30 21:27:35;;;;;;;;;;;20.50;35.30;;;;;;478576;249;1233;-46
2021/11/30 21:29:35;;;;;;;;;;;20.50;35.30;;;;;;478481;248;2402;-46
2021/11/30 21:31:38;;;;;;;;;;;20.50;35.30;;;;;;478177;249;1254;-46
2021/11/30 21:33:38;;;;;;;;;;;20.40;35.30;;;;;;478183;248;1983;-46
2021/11/30 21:35:39;;;;;;;;;;;20.50;35.30;;;;;;478341;249;1135;-46
2021/11/30 21:37:40;;;;;;;;;;;20.50;35.30;;;;;;478568;249;1144;-46
2021/11/30 21:39:42;;;;;;;;;;;20.50;35.30;;;;;;478450;248;994;-46
2021/11/30 21:41:43;;;;;;;;;;;20.50;35.30;;;;;;478269;249;1115;-46
2021/11/30 21:43:44;;;;;;;;;;;20.50;35.30;;;;;;478287;249;2231;-46
2021/11/30 21:45:46;;;;;;;;;;;20.50;35.30;;;;;;478400;249;1213;-46
2021/11/30 21:47:47;;;;;;;;;;;20.40;35.30;;;;;;478276;249;1216;-46
2021/11/30 21:49:49;;;;;;;;;;;20.50;35.30;;;;;;478738;249;1047;-46
2021/11/30 21:51:50;;;;;;;;;;;20.50;35.30;;;;;;478470;248;1985;-46
2021/11/30 21:53:51;;;;;;;;;;;20.50;35.30;;;;;;478597;249;1065;-46
2021/11/30 21:55:52;;;;;;;;;;;20.50;35.40;;;;;;478283;249;1117;-46
2021/11/30 21:57:54;;;;;;;;;;;20.40;35.30;;;;;;478377;249;1133;-46
2021/11/30 21:59:55;;;;;;;;;;;20.40;35.30;;;;;;478486;249;1129;-47
2021/11/30 22:01:57;;;;;;;;;;;20.40;35.30;;;;;;478275;249;1188;-46
2021/11/30 22:03:58;;;;;;;;;;;20.40;35.30;;;;;;478497;249;2131;-46
2021/11/30 22:05:59;;;;;;;;;;;20.40;35.30;;;;;;478492;249;1372;-46
2021/11/30 22:08:00;;;;;;;;;;;20.40;35.40;;;;;;478308;249;1244;-46
2021/11/30 22:10:02;;;;;;;;;;;20.40;35.30;;;;;;478769;249;1052;-45
2021/11/30 22:12:03;;;;;;;;;;;20.40;35.40;;;;;;478263;249;1208;-46
2021/11/30 22:14:04;;;;;;;;;;;20.50;35.30;;;;;;478750;249;1059;-46
2021/11/30 22:16:06;;;;;;;;;;;20.40;35.40;;;;;;478429;249;1382;-46
2021/11/30 22:18:07;;;;;;;;;;;20.50;35.40;;;;;;478726;249;1229;-46
2021/11/30 22:20:14;;;;;;;;;;;20.50;35.30;;;;;;478505;249;1097;-46
2021/11/30 22:22:10;;;;;;;;;;;20.50;35.30;;;;;;478248;248;2166;-46
2021/11/30 22:24:11;;;;;;;;;;;20.50;35.40;;;;;;478309;249;2183;-46
2021/11/30 22:26:12;;;;;;;;;;;20.50;35.30;;;;;;478578;249;1087;-46
2021/11/30 22:28:14;;;;;;;;;;;20.50;35.40;;;;;;478774;249;1119;-46
2021/11/30 22:30:15;;;;;;;;;;;20.50;35.40;;;;;;478561;249;1113;-46
2021/11/30 22:32:17;;;;;;;;;;;20.40;35.40;;;;;;478523;249;1275;-46
2021/11/30 22:34:18;;;;;;;;;;;20.50;35.50;;;;;;478366;248;1042;-46
2021/11/30 22:36:20;;;;;;;;;;;20.50;35.40;;;;;;478256;249;1448;-46
2021/11/30 22:38:20;;;;;;;;;;;20.50;35.40;;;;;;478250;248;2350;-46
2021/11/30 22:40:22;;;;;;;;;;;20.40;35.40;;;;;;478460;249;1053;-46
2021/11/30 22:42:23;;;;;;;;;;;20.40;35.50;;;;;;478377;248;1701;-46
2021/11/30 22:44:25;;;;;;;;;;;20.50;35.40;;;;;;478719;249;2134;-46